createdAt,value
2019-06-07T00:00:25.960Z,13.49
2019-06-07T00:01:08.057Z,13.40
2019-06-07T00:02:05.915Z,13.43
2019-06-07T00:03:09.262Z,13.22
2019-06-07T00:04:08.540Z,13.21
2019-06-07T00:05:07.610Z,13.04
2019-06-07T00:06:07.101Z,13.07
2019-06-07T00:07:09.590Z,13.07
2019-06-07T00:08:10.793Z,13.06
2019-06-07T00:09:08.078Z,12.95
2019-06-07T00:10:06.969Z,12.82
2019-06-07T00:11:07.753Z,12.95
2019-06-07T00:12:09.151Z,12.89
2019-06-07T00:13:06.954Z,12.81
2019-06-07T00:14:08.548Z,12.92
2019-06-07T00:15:14.329Z,12.87
2019-06-07T00:16:08.633Z,12.93
2019-06-07T00:17:07.911Z,12.96
2019-06-07T00:18:11.139Z,13.04
2019-06-07T00:19:07.392Z,13.03
2019-06-07T00:20:09.378Z,13.14
2019-06-07T00:21:08.941Z,13.04
2019-06-07T00:22:17.673Z,13.00
2019-06-07T00:23:08.706Z,13.03
2019-06-07T00:24:08.884Z,13.06
2019-06-07T00:25:12.090Z,13.25
2019-06-07T00:26:08.409Z,13.27
2019-06-07T00:27:08.388Z,13.30
2019-06-07T00:28:08.260Z,13.40
2019-06-07T00:29:09.258Z,13.52
2019-06-07T00:30:34.915Z,13.49
2019-06-07T00:31:09.034Z,13.54
2019-06-07T00:32:09.271Z,13.55
2019-06-07T00:33:10.996Z,13.49
2019-06-07T00:34:10.751Z,13.58
2019-06-07T00:35:09.179Z,13.61
2019-06-07T00:36:10.134Z,13.63
2019-06-07T00:37:11.168Z,13.58
2019-06-07T00:38:09.385Z,13.59
2019-06-07T00:39:10.570Z,13.58
2019-06-07T00:40:16.402Z,13.62
2019-06-07T00:41:10.043Z,13.58
2019-06-07T00:42:10.833Z,13.63
2019-06-07T00:43:13.385Z,13.69
2019-06-07T00:44:10.171Z,13.70
2019-06-07T00:45:11.185Z,13.71
2019-06-07T00:46:14.053Z,13.80
2019-06-07T00:47:10.689Z,13.71
2019-06-07T00:48:15.972Z,13.83
2019-06-07T00:49:13.228Z,13.80
2019-06-07T00:50:11.157Z,13.92
2019-06-07T00:51:11.558Z,13.87
2019-06-07T00:52:18.541Z,13.83
2019-06-07T00:53:16.893Z,13.91
2019-06-07T00:54:12.337Z,13.81
2019-06-07T00:55:14.298Z,13.92
2019-06-07T00:56:11.461Z,13.95
2019-06-07T00:57:12.484Z,13.95
2019-06-07T00:58:13.570Z,13.95
2019-06-07T00:59:14.685Z,13.92
2019-06-07T01:00:12.299Z,14.01
2019-06-07T01:01:13.073Z,13.89
2019-06-07T01:02:14.642Z,13.92
2019-06-07T01:03:12.739Z,13.79
2019-06-07T01:04:13.145Z,13.91
2019-06-07T01:05:15.434Z,13.84
2019-06-07T01:06:12.594Z,13.84
2019-06-07T01:07:13.226Z,13.89
2019-06-07T01:08:14.832Z,13.88
2019-06-07T01:09:12.901Z,13.91
2019-06-07T01:10:13.849Z,14.01
2019-06-07T01:11:13.612Z,13.95
2019-06-07T01:12:14.110Z,14.02
2019-06-07T01:13:14.987Z,13.95
2019-06-07T01:14:14.411Z,13.99
2019-06-07T01:15:15.772Z,13.99
2019-06-07T01:16:13.793Z,13.96
2019-06-07T01:17:23.435Z,13.99
2019-06-07T01:18:35.963Z,14.02
2019-06-07T01:19:13.835Z,14.07
2019-06-07T01:20:14.200Z,14.06
2019-06-07T01:21:15.909Z,13.95
2019-06-07T01:22:16.027Z,14.04
2019-06-07T01:23:55.244Z,14.12
2019-06-07T01:24:13.520Z,14.07
2019-06-07T01:25:13.611Z,14.07
2019-06-07T01:26:13.709Z,14.07
2019-06-07T01:27:13.799Z,14.12
2019-06-07T01:28:13.890Z,14.04
2019-06-07T01:29:13.979Z,14.06
2019-06-07T01:30:14.072Z,14.02
2019-06-07T01:31:14.164Z,14.09
2019-06-07T01:32:14.259Z,14.06
2019-06-07T01:33:14.354Z,14.16
2019-06-07T01:34:14.437Z,14.06
2019-06-07T01:35:14.527Z,14.07
2019-06-07T01:36:14.622Z,14.02
2019-06-07T01:37:16.724Z,13.98
2019-06-07T01:38:17.054Z,13.99
2019-06-07T01:39:16.290Z,14.07
2019-06-07T01:40:16.986Z,14.04
2019-06-07T01:41:16.915Z,14.04
2019-06-07T01:42:18.079Z,14.02
2019-06-07T01:43:16.896Z,14.02
2019-06-07T01:44:17.674Z,14.09
2019-06-07T01:45:17.922Z,14.01
2019-06-07T01:46:15.809Z,14.01
2019-06-07T01:47:17.698Z,14.07
2019-06-07T01:48:20.724Z,14.01
2019-06-07T01:49:16.914Z,14.02
2019-06-07T01:50:17.045Z,13.99
2019-06-07T01:51:16.037Z,14.01
2019-06-07T01:52:16.547Z,14.01
2019-06-07T01:53:18.723Z,13.94
2019-06-07T01:55:18.623Z,13.98
2019-06-07T01:56:18.491Z,13.96
2019-06-07T01:57:36.617Z,14.02
2019-06-07T01:58:17.039Z,13.98
2019-06-07T01:59:17.797Z,13.91
2019-06-07T02:00:17.369Z,13.91
2019-06-07T02:01:19.179Z,13.91
2019-06-07T02:02:17.782Z,13.91
2019-06-07T02:03:18.664Z,13.84
2019-06-07T02:04:21.495Z,13.84
2019-06-07T02:05:19.176Z,13.79
2019-06-07T02:06:18.438Z,13.80
2019-06-07T02:07:20.394Z,13.71
2019-06-07T02:08:20.008Z,13.70
2019-06-07T02:09:18.469Z,13.79
2019-06-07T02:10:19.796Z,13.76
2019-06-07T02:11:20.552Z,13.71
2019-06-07T02:12:31.232Z,13.71
2019-06-07T02:13:18.742Z,13.76
2019-06-07T02:14:19.544Z,13.73
2019-06-07T02:15:21.264Z,13.67
2019-06-07T02:16:19.351Z,13.59
2019-06-07T02:17:20.220Z,13.54
2019-06-07T02:18:21.781Z,13.58
2019-06-07T02:19:19.488Z,13.63
2019-06-07T02:23:01.905Z,13.63
2019-06-07T02:24:01.991Z,13.63
2019-06-07T02:25:37.061Z,13.55
2019-06-07T02:26:02.177Z,13.63
2019-06-07T02:27:02.285Z,13.55
2019-06-07T02:28:26.721Z,13.61
2019-06-07T02:29:02.468Z,13.65
2019-06-07T02:30:35.365Z,13.56
2019-06-07T02:31:02.660Z,13.56
2019-06-07T02:32:02.761Z,13.55
2019-06-07T02:33:02.844Z,13.55
2019-06-07T02:34:02.940Z,13.52
2019-06-07T02:35:03.040Z,13.58
2019-06-07T02:36:03.129Z,13.63
2019-06-07T02:37:03.211Z,13.61
2019-06-07T02:38:03.303Z,13.65
2019-06-07T02:39:03.393Z,13.69
2019-06-07T02:40:03.504Z,13.70
2019-06-07T02:41:03.585Z,13.71
2019-06-07T02:42:03.677Z,13.54
2019-06-07T02:43:03.762Z,13.47
2019-06-07T02:44:03.863Z,13.49
2019-06-07T02:45:03.941Z,13.49
2019-06-07T02:46:24.265Z,13.46
2019-06-07T02:47:04.136Z,13.55
2019-06-07T02:48:04.221Z,13.56
2019-06-07T02:49:04.309Z,13.52
2019-06-07T02:50:04.398Z,13.65
2019-06-07T02:51:04.489Z,13.61
2019-06-07T02:52:04.585Z,13.58
2019-06-07T02:53:04.691Z,13.58
2019-06-07T02:54:04.773Z,13.62
2019-06-07T02:55:04.858Z,13.52
2019-06-07T02:56:37.778Z,13.61
2019-06-07T02:57:05.117Z,13.67
2019-06-07T02:58:05.135Z,13.71
2019-06-07T02:59:05.232Z,13.71
2019-06-07T03:00:39.393Z,13.74
2019-06-07T03:01:08.996Z,13.71
2019-06-07T03:02:05.503Z,13.73
2019-06-07T03:03:05.595Z,13.77
2019-06-07T03:04:05.692Z,13.73
2019-06-07T03:05:05.788Z,13.77
2019-06-07T03:06:05.881Z,13.80
2019-06-07T03:07:05.974Z,13.79
2019-06-07T03:08:06.072Z,13.87
2019-06-07T03:09:06.172Z,13.71
2019-06-07T03:10:06.312Z,13.71
2019-06-07T03:11:06.352Z,13.76
2019-06-07T03:12:06.446Z,13.76
2019-06-07T03:13:06.539Z,13.76
2019-06-07T03:14:06.623Z,13.81
2019-06-07T03:15:06.725Z,13.81
2019-06-07T03:16:06.804Z,13.81
2019-06-07T03:17:06.905Z,13.84
2019-06-07T03:18:07.004Z,13.89
2019-06-07T03:19:07.097Z,13.91
2019-06-07T03:20:07.187Z,13.83
2019-06-07T03:21:07.277Z,13.89
2019-06-07T03:22:07.383Z,13.89
2019-06-07T03:23:07.461Z,13.88
2019-06-07T03:24:07.556Z,13.83
2019-06-07T03:25:07.657Z,13.91
2019-06-07T03:26:07.751Z,13.80
2019-06-07T03:27:32.650Z,13.95
2019-06-07T03:28:07.912Z,13.89
2019-06-07T03:29:08.006Z,13.94
2019-06-07T03:30:36.098Z,13.95
2019-06-07T03:31:08.198Z,13.92
2019-06-07T03:32:08.292Z,13.81
2019-06-07T03:33:08.381Z,13.81
2019-06-07T03:34:08.478Z,13.83
2019-06-07T03:35:08.568Z,13.76
2019-06-07T03:36:23.337Z,13.80
2019-06-07T03:37:08.761Z,13.77
2019-06-07T03:38:08.855Z,13.80
2019-06-07T03:39:08.950Z,13.87
2019-06-07T03:40:09.072Z,13.77
2019-06-07T03:41:09.133Z,13.67
2019-06-07T03:42:09.226Z,13.80
2019-06-07T03:43:09.329Z,13.84
2019-06-07T03:44:09.430Z,13.88
2019-06-07T03:45:09.568Z,13.83
2019-06-07T03:46:09.610Z,13.84
2019-06-07T03:47:09.700Z,13.79
2019-06-07T03:48:09.803Z,13.81
2019-06-07T03:49:09.916Z,13.84
2019-06-07T03:50:09.975Z,13.84
2019-06-07T03:51:24.122Z,13.79
2019-06-07T03:52:10.179Z,13.80
2019-06-07T03:53:10.255Z,13.84
2019-06-07T03:54:10.353Z,13.87
2019-06-07T03:55:10.453Z,13.88
2019-06-07T03:56:11.049Z,13.84
2019-06-07T03:57:10.657Z,13.88
2019-06-07T03:58:31.361Z,13.84
2019-06-07T03:59:10.887Z,13.83
2019-06-07T04:00:10.973Z,13.69
2019-06-07T04:01:11.067Z,13.88
2019-06-07T04:02:11.159Z,13.79
2019-06-07T04:03:32.392Z,13.71
2019-06-07T04:04:11.356Z,13.70
2019-06-07T04:05:11.456Z,13.79
2019-06-07T04:06:11.528Z,13.70
2019-06-07T04:07:11.624Z,13.77
2019-06-07T04:08:11.724Z,13.76
2019-06-07T04:09:11.916Z,13.67
2019-06-07T04:10:11.953Z,13.73
2019-06-07T04:11:12.002Z,13.69
2019-06-07T04:12:12.094Z,13.87
2019-06-07T04:13:12.194Z,13.92
2019-06-07T04:14:12.287Z,13.94
2019-06-07T04:15:12.382Z,13.98
2019-06-07T04:16:12.474Z,13.99
2019-06-07T04:17:12.567Z,13.91
2019-06-07T04:18:12.658Z,13.91
2019-06-07T04:19:12.755Z,13.91
2019-06-07T04:20:12.848Z,13.98
2019-06-07T04:21:12.962Z,13.95
2019-06-07T04:22:13.104Z,14.01
2019-06-07T04:23:27.847Z,13.96
2019-06-07T04:24:13.269Z,14.02
2019-06-07T04:25:13.361Z,13.94
2019-06-07T04:26:13.453Z,13.96
2019-06-07T04:27:13.547Z,13.92
2019-06-07T04:28:13.655Z,13.79
2019-06-07T04:30:13.826Z,13.92
2019-06-07T04:31:13.979Z,13.91
2019-06-07T04:32:14.048Z,13.89
2019-06-07T04:33:14.140Z,13.92
2019-06-07T04:34:14.238Z,13.98
2019-06-07T04:35:14.332Z,13.91
2019-06-07T04:36:14.415Z,13.89
2019-06-07T04:37:14.496Z,13.89
2019-06-07T04:38:14.596Z,13.99
2019-06-07T04:39:14.694Z,13.99
2019-06-07T04:40:14.787Z,14.02
2019-06-07T04:41:14.897Z,13.91
2019-06-07T04:42:14.978Z,13.98
2019-06-07T04:43:15.073Z,13.89
2019-06-07T04:44:15.163Z,13.94
2019-06-07T04:45:33.164Z,13.95
2019-06-07T04:46:15.367Z,13.91
2019-06-07T04:47:15.468Z,13.94
2019-06-07T04:48:15.560Z,13.91
2019-06-07T04:49:15.665Z,13.91
2019-06-07T04:50:15.793Z,13.89
2019-06-07T04:51:15.872Z,13.91
2019-06-07T04:52:15.922Z,13.87
2019-06-07T04:53:16.026Z,13.84
2019-06-07T04:54:16.203Z,13.91
2019-06-07T04:55:16.252Z,13.84
2019-06-07T04:56:16.349Z,13.91
2019-06-07T04:57:16.456Z,13.84
2019-06-07T04:58:16.558Z,13.89
2019-06-07T05:00:00.164Z,13.99
2019-06-07T05:00:46.701Z,13.98
2019-06-07T05:01:27.480Z,13.96
2019-06-07T05:02:16.941Z,13.95
2019-06-07T05:03:17.015Z,13.98
2019-06-07T05:04:17.173Z,14.01
2019-06-07T05:05:17.208Z,14.04
2019-06-07T05:06:17.288Z,14.04
2019-06-07T05:07:17.385Z,14.02
2019-06-07T05:08:27.934Z,14.12
2019-06-07T05:09:17.575Z,14.09
2019-06-07T05:10:17.659Z,14.13
2019-06-07T05:11:17.753Z,14.06
2019-06-07T05:12:17.836Z,14.10
2019-06-07T05:13:17.944Z,14.16
2019-06-07T05:14:18.056Z,14.19
2019-06-07T05:15:18.118Z,14.27
2019-06-07T05:16:18.230Z,14.34
2019-06-07T05:17:18.337Z,14.28
2019-06-07T05:18:18.437Z,14.37
2019-06-07T05:19:18.536Z,14.35
2019-06-07T05:20:18.629Z,14.35
2019-06-07T05:21:18.725Z,14.27
2019-06-07T05:22:18.813Z,14.25
2019-06-07T05:24:00.197Z,14.34
2019-06-07T05:24:18.993Z,14.37
2019-06-07T05:25:19.092Z,14.37
2019-06-07T05:26:19.187Z,14.29
2019-06-07T05:27:19.324Z,14.31
2019-06-07T05:28:19.366Z,14.21
2019-06-07T05:29:19.468Z,14.09
2019-06-07T05:30:59.783Z,14.01
2019-06-07T05:31:19.651Z,13.92
2019-06-07T05:32:19.758Z,13.76
2019-06-07T05:33:19.861Z,13.87
2019-06-07T05:34:19.957Z,13.70
2019-06-07T05:35:20.071Z,13.83
2019-06-07T05:36:20.154Z,13.84
2019-06-07T05:37:20.240Z,14.09
2019-06-07T05:38:20.345Z,14.04
2019-06-07T05:39:20.426Z,14.13
2019-06-07T05:40:21.478Z,14.27
2019-06-07T05:41:20.621Z,14.27
2019-06-07T05:42:20.725Z,14.34
2019-06-07T05:43:20.809Z,14.28
2019-06-07T05:44:20.903Z,14.29
2019-06-07T05:45:21.010Z,14.25
2019-06-07T05:46:21.094Z,14.34
2019-06-07T05:47:21.189Z,14.49
2019-06-07T05:48:21.361Z,14.43
2019-06-07T05:49:21.375Z,14.52
2019-06-07T05:50:39.197Z,14.75
2019-06-07T05:51:21.568Z,14.84
2019-06-07T05:52:21.713Z,14.84
2019-06-07T05:53:21.779Z,15.03
2019-06-07T05:54:21.878Z,15.02
2019-06-07T05:55:21.961Z,14.99
2019-06-07T05:56:22.070Z,14.93
2019-06-07T05:57:22.159Z,15.02
2019-06-07T05:58:22.255Z,15.13
2019-06-07T05:59:22.350Z,15.09
2019-06-07T06:00:22.444Z,15.27
2019-06-07T06:01:44.931Z,15.39
2019-06-07T06:02:24.786Z,15.35
2019-06-07T06:03:22.843Z,15.31
2019-06-07T06:04:22.833Z,15.30
2019-06-07T06:05:33.160Z,15.38
2019-06-07T06:06:23.013Z,15.36
2019-06-07T06:07:23.102Z,15.36
2019-06-07T06:08:23.223Z,15.36
2019-06-07T06:09:23.286Z,15.42
2019-06-07T06:10:23.384Z,15.31
2019-06-07T06:11:42.557Z,15.35
2019-06-07T06:12:34.606Z,15.35
2019-06-07T06:13:23.647Z,15.13
2019-06-07T06:14:23.750Z,15.24
2019-06-07T06:15:41.545Z,15.26
2019-06-07T06:16:23.945Z,15.17
2019-06-07T06:17:24.035Z,15.24
2019-06-07T06:18:24.133Z,15.33
2019-06-07T06:19:24.229Z,15.23
2019-06-07T06:20:24.330Z,15.27
2019-06-07T06:21:24.411Z,15.21
2019-06-07T06:22:24.508Z,15.33
2019-06-07T06:23:24.601Z,15.33
2019-06-07T06:24:24.708Z,15.49
2019-06-07T06:25:33.950Z,15.38
2019-06-07T06:26:24.903Z,15.42
2019-06-07T06:28:25.129Z,15.70
2019-06-07T06:29:25.179Z,15.76
2019-06-07T06:30:25.275Z,15.67
2019-06-07T06:31:25.383Z,15.72
2019-06-07T06:32:48.837Z,15.49
2019-06-07T06:33:33.406Z,15.38
2019-06-07T06:34:25.683Z,15.39
2019-06-07T06:35:25.779Z,15.68
2019-06-07T06:36:25.870Z,15.63
2019-06-07T06:37:25.967Z,15.66
2019-06-07T06:38:26.132Z,15.68
2019-06-07T06:39:26.167Z,15.72
2019-06-07T06:40:26.275Z,15.85
2019-06-07T06:41:26.355Z,15.93
2019-06-07T06:42:26.453Z,16.03
2019-06-07T06:43:26.562Z,16.07
2019-06-07T06:44:26.659Z,16.04
2019-06-07T06:45:26.781Z,16.18
2019-06-07T06:46:39.025Z,16.23
2019-06-07T06:47:26.981Z,16.23
2019-06-07T06:48:27.114Z,16.23
2019-06-07T06:49:27.170Z,16.04
2019-06-07T06:50:27.267Z,16.04
2019-06-07T06:51:27.367Z,16.18
2019-06-07T06:52:27.468Z,16.26
2019-06-07T06:53:27.557Z,16.34
2019-06-07T06:54:40.295Z,16.48
2019-06-07T06:55:27.755Z,16.56
2019-06-07T06:56:27.849Z,16.59
2019-06-07T06:57:27.978Z,16.49
2019-06-07T06:58:28.034Z,16.49
2019-06-07T06:59:38.862Z,16.56
2019-06-07T07:00:43.246Z,16.55
2019-06-07T07:01:28.325Z,16.60
2019-06-07T07:02:28.453Z,16.59
2019-06-07T07:03:56.552Z,16.65
2019-06-07T07:04:28.699Z,16.85
2019-06-07T07:05:28.755Z,16.96
2019-06-07T07:06:28.852Z,17.13
2019-06-07T07:07:28.993Z,16.85
2019-06-07T07:08:29.022Z,17.00
2019-06-07T07:09:29.123Z,16.99
2019-06-07T07:10:29.216Z,17.26
2019-06-07T07:11:29.314Z,17.29
2019-06-07T07:12:29.412Z,17.40
2019-06-07T07:13:29.511Z,17.50
2019-06-07T07:14:29.607Z,17.35
2019-06-07T07:15:29.701Z,17.43
2019-06-07T07:16:29.798Z,16.85
2019-06-07T07:17:47.574Z,16.74
2019-06-07T07:18:29.990Z,16.52
2019-06-07T07:19:30.085Z,16.49
2019-06-07T07:20:30.207Z,16.70
2019-06-07T07:21:30.286Z,16.81
2019-06-07T07:22:30.386Z,17.00
2019-06-07T07:23:30.483Z,17.13
2019-06-07T07:24:30.578Z,17.20
2019-06-07T07:25:30.667Z,17.44
2019-06-07T07:26:30.769Z,17.50
2019-06-07T07:27:30.860Z,17.57
2019-06-07T07:28:30.980Z,17.73
2019-06-07T07:29:31.056Z,17.85
2019-06-07T07:30:36.768Z,18.02
2019-06-07T07:31:31.243Z,18.18
2019-06-07T07:32:31.352Z,18.28
2019-06-07T07:34:20.655Z,18.28
2019-06-07T07:34:36.576Z,18.36
2019-06-07T07:35:31.645Z,18.04
2019-06-07T07:36:39.538Z,18.12
2019-06-07T07:37:31.829Z,18.22
2019-06-07T07:38:31.931Z,18.34
2019-06-07T07:39:32.030Z,18.40
2019-06-07T07:40:57.166Z,18.67
2019-06-07T07:41:32.221Z,18.86
2019-06-07T07:42:32.326Z,18.95
2019-06-07T07:43:32.420Z,19.08
2019-06-07T07:44:32.502Z,19.10
2019-06-07T07:45:32.599Z,19.13
2019-06-07T07:46:32.698Z,19.14
2019-06-07T07:47:32.795Z,19.10
2019-06-07T07:48:32.904Z,19.05
2019-06-07T07:49:32.989Z,19.10
2019-06-07T07:50:33.078Z,19.14
2019-06-07T07:51:33.188Z,19.05
2019-06-07T07:52:33.267Z,18.95
2019-06-07T07:53:48.429Z,19.10
2019-06-07T07:54:33.466Z,19.23
2019-06-07T07:55:33.557Z,19.36
2019-06-07T07:56:33.666Z,19.28
2019-06-07T07:57:33.758Z,19.23
2019-06-07T07:58:33.854Z,19.35
2019-06-07T07:59:42.190Z,19.42
2019-06-07T08:00:52.374Z,19.39
2019-06-07T08:01:34.144Z,19.38
2019-06-07T08:02:34.245Z,19.42
2019-06-07T08:03:34.337Z,19.36
2019-06-07T08:05:12.909Z,19.40
2019-06-07T08:05:43.025Z,18.99
2019-06-07T08:06:34.652Z,19.05
2019-06-07T08:07:34.751Z,19.13
2019-06-07T08:08:34.846Z,19.08
2019-06-07T08:09:34.944Z,19.13
2019-06-07T08:10:35.039Z,19.15
2019-06-07T08:11:35.133Z,19.10
2019-06-07T08:12:55.648Z,19.08
2019-06-07T08:13:35.327Z,19.21
2019-06-07T08:14:35.425Z,19.31
2019-06-07T08:15:35.523Z,19.32
2019-06-07T08:16:35.619Z,19.43
2019-06-07T08:17:35.729Z,19.40
2019-06-07T08:18:35.944Z,19.47
2019-06-07T08:19:35.907Z,19.55
2019-06-07T08:20:35.998Z,19.60
2019-06-07T08:21:36.095Z,19.54
2019-06-07T08:22:36.193Z,19.50
2019-06-07T08:23:36.290Z,19.40
2019-06-07T08:24:36.386Z,19.60
2019-06-07T08:25:36.495Z,19.63
2019-06-07T08:26:36.625Z,19.79
2019-06-07T08:27:36.692Z,19.86
2019-06-07T08:28:36.806Z,19.88
2019-06-07T08:29:45.108Z,20.08
2019-06-07T08:31:00.089Z,20.23
2019-06-07T08:31:37.121Z,20.21
2019-06-07T08:32:37.186Z,20.28
2019-06-07T08:33:37.284Z,20.15
2019-06-07T08:34:37.379Z,20.25
2019-06-07T08:36:06.228Z,20.30
2019-06-07T08:36:42.391Z,20.41
2019-06-07T08:38:47.575Z,20.53
2019-06-07T08:39:37.888Z,20.51
2019-06-07T08:40:37.982Z,20.47
2019-06-07T08:41:53.503Z,20.71
2019-06-07T08:42:59.446Z,20.65
2019-06-07T08:43:38.257Z,20.80
2019-06-07T08:44:38.355Z,21.05
2019-06-07T08:45:38.466Z,21.06
2019-06-07T08:46:38.550Z,21.01
2019-06-07T08:47:38.648Z,20.84
2019-06-07T08:48:38.752Z,20.99
2019-06-07T08:49:38.854Z,20.99
2019-06-07T08:50:38.949Z,21.08
2019-06-07T08:51:39.042Z,21.20
2019-06-07T08:52:39.146Z,21.04
2019-06-07T08:53:39.246Z,21.24
2019-06-07T08:54:39.341Z,21.13
2019-06-07T08:55:39.440Z,21.19
2019-06-07T08:56:39.533Z,20.86
2019-06-07T08:57:39.639Z,20.93
2019-06-07T08:58:39.730Z,20.89
2019-06-07T08:59:39.830Z,20.98
2019-06-07T09:00:47.139Z,20.81
2019-06-07T09:01:40.022Z,20.83
2019-06-07T09:02:40.121Z,20.76
2019-06-07T09:03:40.221Z,20.89
2019-06-07T09:04:40.321Z,20.81
2019-06-07T09:05:40.420Z,20.80
2019-06-07T09:07:02.509Z,20.76
2019-06-07T09:07:40.606Z,20.84
2019-06-07T09:08:40.704Z,20.81
2019-06-07T09:09:40.803Z,20.86
2019-06-07T09:10:40.900Z,20.87
2019-06-07T09:11:40.997Z,20.84
2019-06-07T09:12:41.096Z,20.99
2019-06-07T09:13:41.196Z,21.05
2019-06-07T09:14:58.874Z,21.01
2019-06-07T09:15:41.396Z,21.05
2019-06-07T09:16:41.490Z,21.05
2019-06-07T09:18:29.350Z,21.06
2019-06-07T09:18:44.453Z,21.06
2019-06-07T09:19:41.808Z,21.17
2019-06-07T09:20:41.907Z,21.17
2019-06-07T09:21:42.009Z,21.27
2019-06-07T09:22:42.104Z,21.50
2019-06-07T09:23:42.202Z,21.57
2019-06-07T09:24:42.300Z,21.56
2019-06-07T09:25:56.447Z,21.61
2019-06-07T09:26:42.628Z,21.71
2019-06-07T09:27:42.639Z,21.76
2019-06-07T09:28:42.711Z,21.71
2019-06-07T09:29:42.808Z,21.60
2019-06-07T09:30:42.908Z,21.57
2019-06-07T09:31:52.979Z,21.54
2019-06-07T09:32:43.105Z,21.51
2019-06-07T09:33:43.231Z,21.41
2019-06-07T09:34:43.329Z,21.35
2019-06-07T09:35:43.444Z,21.24
2019-06-07T09:36:43.580Z,21.24
2019-06-07T09:38:43.725Z,21.35
2019-06-07T09:39:43.825Z,21.39
2019-06-07T09:40:43.943Z,21.56
2019-06-07T09:41:49.413Z,21.59
2019-06-07T09:42:44.139Z,21.66
2019-06-07T09:44:01.786Z,21.56
2019-06-07T09:44:44.337Z,21.63
2019-06-07T09:45:44.433Z,21.75
2019-06-07T09:46:44.531Z,21.76
2019-06-07T09:47:44.630Z,21.72
2019-06-07T09:49:10.532Z,21.83
2019-06-07T09:49:44.828Z,22.01
2019-06-07T09:50:44.929Z,22.13
2019-06-07T09:51:45.023Z,22.29
2019-06-07T09:52:57.778Z,22.31
2019-06-07T09:53:45.221Z,22.57
2019-06-07T09:55:45.434Z,22.56
2019-06-07T09:56:46.312Z,22.43
2019-06-07T09:57:45.628Z,22.34
2019-06-07T09:58:52.818Z,22.50
2019-06-07T09:59:46.884Z,22.49
2019-06-07T10:00:45.931Z,22.39
2019-06-07T10:01:46.022Z,22.54
2019-06-07T10:02:46.123Z,22.54
2019-06-07T10:03:46.222Z,22.62
2019-06-07T10:04:46.325Z,22.54
2019-06-07T10:05:46.421Z,22.59
2019-06-07T10:06:46.520Z,22.80
2019-06-07T10:08:02.314Z,22.84
2019-06-07T10:10:46.920Z,22.77
2019-06-07T10:11:47.018Z,22.77
2019-06-07T10:12:47.120Z,22.75
2019-06-07T10:13:47.216Z,22.80
2019-06-07T10:14:47.318Z,22.67
2019-06-07T10:15:47.416Z,22.69
2019-06-07T10:16:48.008Z,22.67
2019-06-07T10:17:47.644Z,22.68
2019-06-07T10:18:47.751Z,22.86
2019-06-07T10:19:47.849Z,22.53
2019-06-07T10:20:47.943Z,22.64
2019-06-07T10:21:48.042Z,22.78
2019-06-07T10:22:48.142Z,22.99
2019-06-07T10:23:48.239Z,22.96
2019-06-07T10:24:48.339Z,23.09
2019-06-07T10:25:48.438Z,23.08
2019-06-07T10:26:48.539Z,22.82
2019-06-07T10:27:48.635Z,22.75
2019-06-07T10:28:48.740Z,22.72
2019-06-07T10:29:48.840Z,22.57
2019-06-07T10:30:48.944Z,22.50
2019-06-07T10:31:49.043Z,22.62
2019-06-07T10:32:52.019Z,22.65
2019-06-07T10:33:49.241Z,22.65
2019-06-07T10:34:49.340Z,22.71
2019-06-07T10:35:49.448Z,22.77
2019-06-07T10:36:49.552Z,22.78
2019-06-07T10:37:49.647Z,22.93
2019-06-07T10:38:49.750Z,22.97
2019-06-07T10:39:49.847Z,22.83
2019-06-07T10:40:49.991Z,22.47
2019-06-07T10:41:50.042Z,22.39
2019-06-07T10:42:50.166Z,22.52
2019-06-07T10:43:50.260Z,22.56
2019-06-07T10:44:50.363Z,22.67
2019-06-07T10:45:50.462Z,22.54
2019-06-07T10:46:50.558Z,22.56
2019-06-07T10:47:50.656Z,22.62
2019-06-07T10:48:50.761Z,22.69
2019-06-07T10:49:50.868Z,22.84
2019-06-07T10:50:50.965Z,22.97
2019-06-07T10:51:51.062Z,22.99
2019-06-07T10:52:51.169Z,23.05
2019-06-07T10:53:51.265Z,23.04
2019-06-07T10:54:51.367Z,23.12
2019-06-07T10:55:51.470Z,23.19
2019-06-07T10:56:51.586Z,23.20
2019-06-07T10:57:51.662Z,23.31
2019-06-07T10:58:51.759Z,23.26
2019-06-07T10:59:51.873Z,23.24
2019-06-07T11:00:51.959Z,23.17
2019-06-07T11:01:52.057Z,23.32
2019-06-07T11:02:55.121Z,23.31
2019-06-07T11:03:52.248Z,23.20
2019-06-07T11:04:52.446Z,23.17
2019-06-07T11:05:52.490Z,23.26
2019-06-07T11:06:52.552Z,23.29
2019-06-07T11:07:52.647Z,23.20
2019-06-07T11:08:52.747Z,23.40
2019-06-07T11:10:06.281Z,23.31
2019-06-07T11:10:52.941Z,23.39
2019-06-07T11:11:53.039Z,23.38
2019-06-07T11:12:53.140Z,23.29
2019-06-07T11:13:53.236Z,23.31
2019-06-07T11:14:53.339Z,23.17
2019-06-07T11:15:53.432Z,23.26
2019-06-07T11:16:53.534Z,23.08
2019-06-07T11:17:53.634Z,23.20
2019-06-07T11:18:53.734Z,23.20
2019-06-07T11:19:53.839Z,23.15
2019-06-07T11:20:53.937Z,23.23
2019-06-07T11:21:54.031Z,23.20
2019-06-07T11:22:54.131Z,23.19
2019-06-07T11:23:54.251Z,23.15
2019-06-07T11:24:54.336Z,23.27
2019-06-07T11:25:54.439Z,23.35
2019-06-07T11:26:54.539Z,23.38
2019-06-07T11:27:54.637Z,23.29
2019-06-07T11:28:54.739Z,23.34
2019-06-07T11:29:54.844Z,23.53
2019-06-07T11:30:54.959Z,23.68
2019-06-07T11:31:55.057Z,23.58
2019-06-07T11:32:55.156Z,23.68
2019-06-07T11:33:55.255Z,23.85
2019-06-07T11:34:55.358Z,23.70
2019-06-07T11:35:55.455Z,23.77
2019-06-07T11:36:55.555Z,23.68
2019-06-07T11:37:55.669Z,23.80
2019-06-07T11:38:55.770Z,23.76
2019-06-07T11:39:55.870Z,23.75
2019-06-07T11:40:55.970Z,23.83
2019-06-07T11:41:56.070Z,23.90
2019-06-07T11:42:56.168Z,24.00
2019-06-07T11:43:56.273Z,24.12
2019-06-07T11:44:57.356Z,23.70
2019-06-07T11:45:56.485Z,23.71
2019-06-07T11:46:56.580Z,23.83
2019-06-07T11:47:59.777Z,23.70
2019-06-07T11:48:56.784Z,23.75
2019-06-07T11:49:56.883Z,23.47
2019-06-07T11:50:57.033Z,23.40
2019-06-07T11:51:57.101Z,23.08
2019-06-07T11:52:57.209Z,23.17
2019-06-07T11:53:57.304Z,23.26
2019-06-07T11:54:57.400Z,23.19
2019-06-07T11:55:57.507Z,23.05
2019-06-07T11:56:57.594Z,23.05
2019-06-07T11:57:57.694Z,22.75
2019-06-07T11:58:57.820Z,22.90
2019-06-07T11:59:57.912Z,23.07
2019-06-07T12:00:58.036Z,22.97
2019-06-07T12:01:58.112Z,23.05
2019-06-07T12:02:58.214Z,23.04
2019-06-07T12:03:58.961Z,22.92
2019-06-07T12:04:58.413Z,23.07
2019-06-07T12:05:58.522Z,23.17
2019-06-07T12:06:58.725Z,22.89
2019-06-07T12:07:58.727Z,23.09
2019-06-07T12:08:58.838Z,23.20
2019-06-07T12:09:58.937Z,23.43
2019-06-07T12:10:59.037Z,23.62
2019-06-07T12:11:59.139Z,23.72
2019-06-07T12:12:59.252Z,23.90
2019-06-07T12:13:59.351Z,24.07
2019-06-07T12:14:59.454Z,24.04
2019-06-07T12:15:59.554Z,24.01
2019-06-07T12:16:59.666Z,24.12
2019-06-07T12:17:59.754Z,24.20
2019-06-07T12:18:59.853Z,24.22
2019-06-07T12:19:59.966Z,23.95
2019-06-07T12:21:00.066Z,23.87
2019-06-07T12:22:00.167Z,23.82
2019-06-07T12:23:00.272Z,23.64
2019-06-07T12:24:00.394Z,23.67
2019-06-07T12:25:00.466Z,23.82
2019-06-07T12:26:00.568Z,23.95
2019-06-07T12:27:00.677Z,24.12
2019-06-07T12:28:00.779Z,24.16
2019-06-07T12:29:00.878Z,24.20
2019-06-07T12:30:09.200Z,24.24
2019-06-07T12:31:01.083Z,24.29
2019-06-07T12:32:01.177Z,24.37
2019-06-07T12:33:01.284Z,24.17
2019-06-07T12:34:01.376Z,24.17
2019-06-07T12:35:01.479Z,24.31
2019-06-07T12:36:01.606Z,24.35
2019-06-07T12:37:01.714Z,24.45
2019-06-07T12:38:01.817Z,24.31
2019-06-07T12:39:01.920Z,24.35
2019-06-07T12:40:02.100Z,24.20
2019-06-07T12:41:02.118Z,24.24
2019-06-07T12:42:02.221Z,24.13
2019-06-07T12:43:02.323Z,24.13
2019-06-07T12:44:02.466Z,24.22
2019-06-07T12:45:02.519Z,24.34
2019-06-07T12:46:02.643Z,24.38
2019-06-07T12:47:02.740Z,24.42
2019-06-07T12:48:02.955Z,24.47
2019-06-07T12:49:02.928Z,24.53
2019-06-07T12:50:03.017Z,24.77
2019-06-07T12:51:03.130Z,24.76
2019-06-07T12:52:03.231Z,24.80
2019-06-07T12:53:03.324Z,24.79
2019-06-07T12:54:03.430Z,24.94
2019-06-07T12:55:03.524Z,24.97
2019-06-07T12:56:03.639Z,25.06
2019-06-07T12:57:03.716Z,25.12
2019-06-07T12:58:03.830Z,25.25
2019-06-07T12:59:03.901Z,25.30
2019-06-07T13:00:04.007Z,25.35
2019-06-07T13:01:04.108Z,25.27
2019-06-07T13:02:04.209Z,25.34
2019-06-07T13:03:04.325Z,25.27
2019-06-07T13:04:04.418Z,25.44